createdAt,value
2017-11-10T00:00:52.860Z,87.40
2017-11-10T00:03:20.378Z,86.80
2017-11-10T00:05:47.817Z,86.70
2017-11-10T00:08:15.320Z,86.90
2017-11-10T00:10:42.776Z,87.70
2017-11-10T00:13:10.296Z,87.50
2017-11-10T00:15:37.822Z,87.50
2017-11-10T00:18:05.281Z,87.60
2017-11-10T00:20:32.786Z,87.90
2017-11-10T00:23:00.324Z,88.00
2017-11-10T00:25:27.757Z,87.70
2017-11-10T00:27:56.025Z,86.90
2017-11-10T00:30:24.418Z,87.00
2017-11-10T00:32:52.628Z,87.30
2017-11-10T00:35:20.137Z,87.30
2017-11-10T00:37:47.633Z,87.10
2017-11-10T00:40:15.858Z,87.00
2017-11-10T00:42:43.335Z,87.00
2017-11-10T00:45:10.798Z,87.30
2017-11-10T00:47:38.310Z,87.00
2017-11-10T00:50:05.766Z,87.20
2017-11-10T00:52:33.240Z,87.20
2017-11-10T00:55:00.741Z,87.30
2017-11-10T00:57:28.244Z,86.40
2017-11-10T00:59:56.474Z,86.80
2017-11-10T01:02:23.946Z,86.80
2017-11-10T01:04:51.560Z,87.30
2017-11-10T01:07:19.023Z,87.10
2017-11-10T01:09:46.500Z,87.40
2017-11-10T01:12:14.025Z,87.40
2017-11-10T01:14:42.279Z,87.50
2017-11-10T01:17:09.789Z,87.50
2017-11-10T01:19:38.007Z,86.60
2017-11-10T01:22:05.533Z,86.60
2017-11-10T01:24:33.005Z,87.30
2017-11-10T01:27:00.534Z,87.10
2017-11-10T01:29:28.776Z,87.20
2017-11-10T01:31:56.240Z,87.20
2017-11-10T01:34:23.766Z,87.50
2017-11-10T01:36:51.202Z,87.20
2017-11-10T01:39:19.494Z,87.10
2017-11-10T01:41:47.751Z,86.70
2017-11-10T01:44:15.214Z,86.70
2017-11-10T01:46:42.742Z,86.60
2017-11-10T01:49:10.198Z,86.50
2017-11-10T01:51:37.647Z,86.30
2017-11-10T01:54:05.079Z,86.00
2017-11-10T01:56:33.372Z,85.20
2017-11-10T01:59:00.843Z,85.20
2017-11-10T02:01:28.349Z,84.90
2017-11-10T02:03:55.814Z,85.50
2017-11-10T02:06:23.260Z,86.00
2017-11-10T02:08:50.783Z,86.40
2017-11-10T02:11:18.996Z,85.70
2017-11-10T02:13:46.445Z,85.60
2017-11-10T02:16:13.937Z,85.80
2017-11-10T02:18:41.401Z,85.00
2017-11-10T02:21:08.911Z,84.80
2017-11-10T02:23:37.139Z,84.80
2017-11-10T02:26:04.597Z,84.80
2017-11-10T02:28:32.098Z,84.20
2017-11-10T02:30:59.555Z,84.00
2017-11-10T02:33:27.007Z,85.20
2017-11-10T02:35:54.617Z,84.10
2017-11-10T02:38:22.016Z,84.00
2017-11-10T02:40:49.499Z,84.40
2017-11-10T02:43:16.983Z,84.00
2017-11-10T02:45:45.192Z,84.00
2017-11-10T02:48:12.699Z,84.00
2017-11-10T02:50:40.171Z,84.20
2017-11-10T02:53:07.637Z,84.00
2017-11-10T02:55:35.109Z,84.40
2017-11-10T02:58:03.326Z,84.70
2017-11-10T03:00:30.813Z,84.00
2017-11-10T03:02:58.284Z,84.60
2017-11-10T03:05:25.772Z,84.20
2017-11-10T03:07:53.267Z,85.00
2017-11-10T03:10:20.737Z,84.50
2017-11-10T03:12:48.213Z,85.10
2017-11-10T03:15:15.706Z,85.60
2017-11-10T03:17:43.166Z,85.90
2017-11-10T03:20:10.638Z,85.90
2017-11-10T03:22:38.112Z,86.60
2017-11-10T03:25:05.579Z,87.30
2017-11-10T03:27:33.126Z,87.60
2017-11-10T03:30:00.553Z,88.10
2017-11-10T03:32:28.006Z,88.50
2017-11-10T03:34:55.498Z,88.50
2017-11-10T03:37:22.955Z,88.30
2017-11-10T03:39:50.446Z,88.40
2017-11-10T03:42:17.940Z,88.40
2017-11-10T03:44:45.411Z,88.00
2017-11-10T03:47:12.928Z,87.50
2017-11-10T03:49:40.427Z,87.40
2017-11-10T03:52:07.924Z,87.50
2017-11-10T03:54:35.388Z,87.60
2017-11-10T03:57:02.933Z,87.30
2017-11-10T03:59:30.384Z,86.50
2017-11-10T04:01:57.838Z,85.90
2017-11-10T04:04:25.325Z,86.10
2017-11-10T04:06:52.784Z,86.40
2017-11-10T04:09:20.245Z,86.60
2017-11-10T04:11:47.733Z,85.80
2017-11-10T04:14:15.217Z,85.60
2017-11-10T04:16:42.714Z,85.60
2017-11-10T04:19:10.162Z,85.70
2017-11-10T04:21:38.447Z,85.40
2017-11-10T04:24:06.707Z,85.10
2017-11-10T04:26:34.158Z,85.10
2017-11-10T04:29:01.667Z,84.80
2017-11-10T04:31:29.143Z,85.30
2017-11-10T04:33:56.586Z,85.40
2017-11-10T04:36:24.857Z,85.20
2017-11-10T04:38:53.125Z,85.20
2017-11-10T04:41:22.124Z,85.10
2017-11-10T04:43:50.405Z,85.40
2017-11-10T04:46:17.865Z,85.30
2017-11-10T04:48:46.149Z,85.80
2017-11-10T04:51:14.410Z,86.00
2017-11-10T04:53:41.875Z,85.60
2017-11-10T04:56:09.312Z,85.70
2017-11-10T04:58:36.804Z,85.60
2017-11-10T05:01:04.262Z,86.00
2017-11-10T05:03:31.736Z,86.10
2017-11-10T05:05:59.523Z,86.30
2017-11-10T05:08:27.835Z,86.80
2017-11-10T05:10:56.189Z,87.00
2017-11-10T05:13:23.731Z,86.90
2017-11-10T05:15:51.158Z,86.80
2017-11-10T05:18:18.623Z,87.10
2017-11-10T05:20:46.121Z,87.40
2017-11-10T05:23:13.586Z,87.50
2017-11-10T05:25:41.819Z,88.20
2017-11-10T05:28:09.315Z,88.20
2017-11-10T05:30:36.766Z,88.00
2017-11-10T05:33:04.219Z,87.70
2017-11-10T05:35:31.725Z,88.00
2017-11-10T05:37:59.975Z,88.00
2017-11-10T05:40:27.424Z,88.00
2017-11-10T05:42:54.960Z,88.30
2017-11-10T05:45:22.407Z,88.60
2017-11-10T05:47:49.860Z,88.20
2017-11-10T05:50:18.140Z,88.30
2017-11-10T05:52:46.373Z,88.50
2017-11-10T05:55:13.822Z,88.40
2017-11-10T05:57:41.301Z,88.80
2017-11-10T06:00:08.752Z,88.70
2017-11-10T06:02:36.242Z,88.40
2017-11-10T06:05:03.706Z,88.30
2017-11-10T06:07:31.177Z,88.00
2017-11-10T06:09:58.666Z,88.30
2017-11-10T06:12:26.140Z,88.20
2017-11-10T06:14:53.633Z,88.50
2017-11-10T06:17:21.073Z,88.40
2017-11-10T06:19:48.561Z,88.40
2017-11-10T06:22:16.062Z,88.70
2017-11-10T06:24:43.510Z,88.90
2017-11-10T06:27:10.986Z,88.80
2017-11-10T06:29:39.221Z,88.80
2017-11-10T06:32:06.689Z,88.60
2017-11-10T06:34:34.189Z,88.90
2017-11-10T06:37:02.828Z,88.90
2017-11-10T06:39:30.293Z,88.80
2017-11-10T06:41:57.760Z,88.90
2017-11-10T06:44:25.251Z,88.90
2017-11-10T06:46:52.723Z,88.90
2017-11-10T06:49:20.179Z,88.90
2017-11-10T06:51:47.661Z,88.90
2017-11-10T06:54:15.893Z,88.90
2017-11-10T06:56:43.403Z,88.90
2017-11-10T06:59:11.628Z,88.40
2017-11-10T07:01:39.135Z,88.40
2017-11-10T07:04:06.592Z,88.50
2017-11-10T07:06:34.079Z,88.30
2017-11-10T07:09:02.346Z,88.10
2017-11-10T07:11:30.615Z,88.20
2017-11-10T07:13:58.071Z,88.20
2017-11-10T07:16:25.550Z,88.20
2017-11-10T07:18:53.829Z,88.10
2017-11-10T07:21:22.116Z,87.40
2017-11-10T07:23:50.354Z,87.60
2017-11-10T07:26:17.871Z,87.60
2017-11-10T07:28:46.113Z,87.80
2017-11-10T07:31:13.599Z,87.80
2017-11-10T07:33:41.064Z,88.20
2017-11-10T07:36:08.527Z,88.50
2017-11-10T07:38:36.789Z,89.60
2017-11-10T07:41:04.240Z,89.60
2017-11-10T07:43:31.728Z,90.10
2017-11-10T07:45:59.956Z,90.40
2017-11-10T07:48:27.494Z,90.40
2017-11-10T07:50:55.020Z,90.50
2017-11-10T07:53:22.473Z,90.50
2017-11-10T07:55:49.945Z,90.50
2017-11-10T07:58:17.391Z,90.60
2017-11-10T08:00:44.882Z,90.60
2017-11-10T08:03:13.112Z,90.60
2017-11-10T08:05:40.656Z,90.50
2017-11-10T08:08:08.154Z,90.60
2017-11-10T08:10:35.642Z,90.60
2017-11-10T08:13:03.129Z,90.70
2017-11-10T08:15:30.614Z,90.70
2017-11-10T08:17:58.125Z,90.70
2017-11-10T08:20:25.565Z,90.70
2017-11-10T08:22:53.054Z,91.10
2017-11-10T08:25:20.556Z,90.70
2017-11-10T08:27:48.003Z,90.60
2017-11-10T08:30:16.330Z,90.30
2017-11-10T08:32:43.803Z,90.30
2017-11-10T08:35:11.281Z,90.40
2017-11-10T08:37:38.737Z,90.20
2017-11-10T08:40:06.234Z,90.20
2017-11-10T08:42:34.487Z,90.10
2017-11-10T08:45:01.981Z,90.10
2017-11-10T08:47:29.441Z,90.10
2017-11-10T08:49:57.720Z,90.00
2017-11-10T08:52:25.965Z,89.60
2017-11-10T08:54:53.369Z,89.60
2017-11-10T08:57:20.866Z,89.50
2017-11-10T08:59:48.354Z,89.30
2017-11-10T09:02:15.764Z,88.60
2017-11-10T09:04:43.258Z,88.80
2017-11-10T09:07:11.395Z,89.30
2017-11-10T09:09:38.881Z,89.10
2017-11-10T09:12:06.364Z,89.00
2017-11-10T09:14:33.894Z,89.20
2017-11-10T09:17:01.316Z,89.20
2017-11-10T09:19:28.772Z,89.30
2017-11-10T09:21:56.294Z,89.10
2017-11-10T09:24:23.746Z,89.30
2017-11-10T09:26:51.256Z,89.30
2017-11-10T09:29:19.514Z,90.00
2017-11-10T09:31:47.097Z,90.00
2017-11-10T09:34:14.566Z,90.00
2017-11-10T09:36:42.054Z,89.90
2017-11-10T09:39:10.290Z,90.20
2017-11-10T09:41:37.791Z,90.10
2017-11-10T09:44:05.243Z,90.30
2017-11-10T09:46:32.696Z,90.30
2017-11-10T09:49:00.175Z,90.20
2017-11-10T09:51:28.399Z,90.50
2017-11-10T09:53:55.881Z,90.10
2017-11-10T09:56:23.344Z,90.00
2017-11-10T09:58:50.826Z,90.00
2017-11-10T10:01:18.324Z,90.00
2017-11-10T10:03:46.632Z,90.00
2017-11-10T10:06:14.214Z,90.00
2017-11-10T10:08:41.716Z,89.50
2017-11-10T10:11:09.251Z,89.50
2017-11-10T10:13:36.757Z,90.10
2017-11-10T10:16:04.227Z,89.50
2017-11-10T10:18:31.710Z,89.50
2017-11-10T10:20:59.260Z,89.50
2017-11-10T10:23:26.786Z,89.50
2017-11-10T10:25:54.240Z,89.50
2017-11-10T10:28:21.743Z,89.50
2017-11-10T10:30:50.177Z,89.20
2017-11-10T10:33:17.589Z,89.20
2017-11-10T10:35:45.092Z,88.60
2017-11-10T10:38:12.632Z,88.30
2017-11-10T10:40:40.160Z,88.00
2017-11-10T10:43:08.581Z,87.60
2017-11-10T10:45:36.126Z,87.50
2017-11-10T10:48:03.625Z,87.30
2017-11-10T10:50:31.145Z,87.00
2017-11-10T10:52:59.399Z,86.40
2017-11-10T10:55:26.883Z,86.40
2017-11-10T10:57:54.341Z,86.10
2017-11-10T11:00:22.760Z,85.40
2017-11-10T11:02:50.264Z,85.40
2017-11-10T11:05:17.766Z,85.20
2017-11-10T11:07:45.270Z,85.20
2017-11-10T11:10:12.765Z,85.20
2017-11-10T11:12:40.204Z,85.20
2017-11-10T11:15:07.914Z,85.30
2017-11-10T11:17:36.155Z,85.30
2017-11-10T11:20:03.650Z,85.20
2017-11-10T11:22:31.139Z,85.20
2017-11-10T11:24:58.654Z,85.10
2017-11-10T11:27:26.131Z,84.10
2017-11-10T11:29:53.633Z,83.50
2017-11-10T11:32:21.883Z,83.20
2017-11-10T11:34:51.200Z,84.60
2017-11-10T11:37:18.668Z,84.60
2017-11-10T11:39:46.144Z,85.40
2017-11-10T11:42:13.679Z,85.80
2017-11-10T11:44:41.931Z,85.40
2017-11-10T11:47:09.483Z,85.40
2017-11-10T11:49:37.053Z,85.40
2017-11-10T11:52:05.336Z,85.50
2017-11-10T11:54:32.783Z,85.60
2017-11-10T11:57:00.301Z,85.40
2017-11-10T11:59:28.591Z,86.60
2017-11-10T12:01:56.021Z,85.80
2017-11-10T12:04:23.610Z,86.80
2017-11-10T12:06:54.622Z,88.60
2017-11-10T12:09:22.037Z,88.10
2017-11-10T12:11:49.520Z,88.80
2017-11-10T12:14:16.992Z,89.90
2017-11-10T12:16:44.493Z,89.90
2017-11-10T12:19:11.984Z,90.30
2017-11-10T12:21:39.433Z,90.50
2017-11-10T12:24:06.982Z,90.70
2017-11-10T12:26:35.300Z,91.30
2017-11-10T12:29:02.787Z,91.10
2017-11-10T12:31:30.330Z,91.10
2017-11-10T12:33:57.801Z,91.20
2017-11-10T12:36:25.299Z,91.20
2017-11-10T12:38:52.789Z,91.40
2017-11-10T12:41:21.003Z,91.90
2017-11-10T12:43:48.531Z,91.90
2017-11-10T12:46:16.060Z,92.00
2017-11-10T12:48:43.581Z,92.00
2017-11-10T12:51:11.354Z,92.20
2017-11-10T12:53:39.936Z,92.60
2017-11-10T12:56:08.186Z,92.60
2017-11-10T12:58:36.470Z,92.60
2017-11-10T13:01:03.940Z,92.50
2017-11-10T13:03:32.940Z,92.70
2017-11-10T13:06:00.399Z,92.60
2017-11-10T13:08:29.055Z,92.50
2017-11-10T13:10:56.532Z,92.50
2017-11-10T13:13:23.985Z,92.10
2017-11-10T13:15:51.485Z,92.00
2017-11-10T13:18:18.976Z,92.00
2017-11-10T13:20:46.483Z,91.60
2017-11-10T13:23:14.734Z,91.10
2017-11-10T13:25:42.258Z,90.90
2017-11-10T13:28:10.516Z,90.70
2017-11-10T13:30:37.913Z,90.70
2017-11-10T13:33:05.400Z,90.00
2017-11-10T13:35:32.862Z,90.20
2017-11-10T13:38:00.402Z,89.20
2017-11-10T13:40:27.858Z,88.50
2017-11-10T13:42:55.328Z,88.00
2017-11-10T13:45:22.829Z,86.80
2017-11-10T13:47:50.266Z,86.60
2017-11-10T13:50:17.787Z,87.00
2017-11-10T13:52:46.080Z,86.20
2017-11-10T13:55:13.580Z,86.20
2017-11-10T13:57:41.063Z,86.30
2017-11-10T14:00:08.504Z,86.40
2017-11-10T14:02:35.942Z,86.40
2017-11-10T14:05:03.438Z,87.30
2017-11-10T14:07:30.944Z,87.20
2017-11-10T14:09:58.440Z,87.70
2017-11-10T14:12:25.949Z,88.30
2017-11-10T14:14:53.400Z,88.90
2017-11-10T14:17:20.995Z,88.60
2017-11-10T14:19:49.260Z,89.00
2017-11-10T14:22:16.745Z,88.90
2017-11-10T14:24:47.459Z,90.20
2017-11-10T14:27:15.252Z,90.70
2017-11-10T14:29:43.605Z,91.40
2017-11-10T14:32:11.071Z,91.40
2017-11-10T14:34:38.682Z,91.60
2017-11-10T14:37:07.051Z,90.30
2017-11-10T14:39:34.589Z,90.20
2017-11-10T14:42:02.801Z,88.10
2017-11-10T14:44:30.378Z,87.50
2017-11-10T14:46:57.909Z,87.40
2017-11-10T14:49:26.281Z,88.10
2017-11-10T14:51:53.756Z,88.10
2017-11-10T14:54:22.011Z,86.60
2017-11-10T14:56:49.537Z,86.50
2017-11-10T14:59:17.005Z,85.80
2017-11-10T15:01:44.505Z,85.20
2017-11-10T15:04:11.970Z,85.10
2017-11-10T15:06:39.537Z,85.10
2017-11-10T15:09:06.988Z,85.10
2017-11-10T15:11:34.517Z,85.00
2017-11-10T15:14:03.073Z,84.90
2017-11-10T15:16:30.552Z,85.10
2017-11-10T15:18:58.033Z,84.80
2017-11-10T15:21:25.516Z,84.60
2017-11-10T15:23:53.021Z,85.00
2017-11-10T15:26:21.311Z,84.30
2017-11-10T15:28:48.736Z,84.40
2017-11-10T15:31:16.270Z,84.80
2017-11-10T15:33:43.754Z,84.00
2017-11-10T15:36:11.215Z,83.20
2017-11-10T15:38:38.691Z,79.00
2017-11-10T15:41:06.166Z,77.10
2017-11-10T15:43:35.222Z,76.60
2017-11-10T15:46:02.710Z,76.50
2017-11-10T15:48:30.169Z,77.70
2017-11-10T15:50:57.638Z,77.50
2017-11-10T15:53:26.114Z,77.80
2017-11-10T15:55:53.596Z,77.90
2017-11-10T15:58:21.891Z,79.60
2017-11-10T16:00:50.088Z,79.60
2017-11-10T16:03:17.564Z,79.50
2017-11-10T16:05:45.101Z,79.30
2017-11-10T16:08:12.580Z,79.20
2017-11-10T16:10:40.102Z,79.40
2017-11-10T16:13:07.523Z,78.80
2017-11-10T16:15:35.018Z,78.00
2017-11-10T16:18:03.269Z,76.80
2017-11-10T16:20:30.841Z,76.80
2017-11-10T16:22:58.301Z,76.10
2017-11-10T16:25:25.793Z,75.50
2017-11-10T16:27:53.232Z,76.30
2017-11-10T16:30:20.801Z,76.60
2017-11-10T16:32:48.289Z,75.30
2017-11-10T16:35:15.802Z,76.00
2017-11-10T16:37:44.029Z,75.30
2017-11-10T16:40:11.497Z,75.10
2017-11-10T16:42:40.505Z,76.20
2017-11-10T16:45:08.747Z,75.20
2017-11-10T16:47:36.231Z,75.20
2017-11-10T16:50:05.242Z,70.80
2017-11-10T16:52:33.228Z,71.30
2017-11-10T16:55:00.681Z,70.40
2017-11-10T16:57:29.165Z,71.30
2017-11-10T16:59:57.471Z,65.60
2017-11-10T17:02:25.740Z,64.40
2017-11-10T17:04:53.206Z,64.40
2017-11-10T17:07:21.455Z,65.20
2017-11-10T17:09:48.979Z,65.20
2017-11-10T17:12:16.457Z,65.30
2017-11-10T17:14:43.976Z,66.10
2017-11-10T17:17:11.527Z,66.50
2017-11-10T17:19:39.761Z,66.00
2017-11-10T17:22:07.222Z,66.00
2017-11-10T17:24:35.490Z,67.70
2017-11-10T17:27:02.984Z,67.70
2017-11-10T17:29:30.467Z,69.10
2017-11-10T17:31:58.792Z,68.10
2017-11-10T17:34:26.298Z,68.00
2017-11-10T17:36:53.820Z,68.00
2017-11-10T17:39:22.069Z,69.30
2017-11-10T17:41:50.364Z,70.50
2017-11-10T17:44:17.774Z,70.50
2017-11-10T17:46:45.365Z,71.10
2017-11-10T17:49:12.817Z,71.40
2017-11-10T17:51:40.336Z,71.60
2017-11-10T17:54:07.875Z,75.80
2017-11-10T17:56:36.159Z,74.50
2017-11-10T17:59:03.644Z,73.80
2017-11-10T18:01:31.135Z,73.40
2017-11-10T18:03:58.745Z,70.70
2017-11-10T18:06:26.325Z,72.60
2017-11-10T18:08:54.546Z,71.80
2017-11-10T18:11:21.984Z,71.90
2017-11-10T18:13:49.618Z,71.00
2017-11-10T18:16:17.217Z,71.10
2017-11-10T18:18:44.845Z,67.10
2017-11-10T18:21:12.306Z,71.90
2017-11-10T18:23:39.847Z,72.20
2017-11-10T18:26:07.324Z,68.50
2017-11-10T18:28:35.630Z,67.10
2017-11-10T18:31:03.294Z,67.10
2017-11-10T18:33:31.558Z,66.60
2017-11-10T18:35:59.126Z,66.60
2017-11-10T18:38:26.551Z,68.00
2017-11-10T18:40:54.070Z,69.60
2017-11-10T18:43:21.593Z,69.20
2017-11-10T18:45:49.828Z,70.00
2017-11-10T18:48:18.561Z,69.50
2017-11-10T18:50:46.761Z,70.20
2017-11-10T18:53:14.228Z,70.20
2017-11-10T18:55:42.533Z,70.10
2017-11-10T18:58:10.087Z,70.00
2017-11-10T19:00:37.534Z,70.10
2017-11-10T19:03:05.781Z,71.30
2017-11-10T19:05:33.250Z,70.70
2017-11-10T19:08:00.783Z,71.80
2017-11-10T19:10:28.983Z,69.00
2017-11-10T19:12:56.471Z,69.00
2017-11-10T19:15:24.723Z,68.90
2017-11-10T19:17:52.206Z,68.60
2017-11-10T19:20:19.773Z,65.80
2017-11-10T19:22:47.262Z,67.70
2017-11-10T19:25:14.711Z,68.20
2017-11-10T19:27:42.239Z,67.70
2017-11-10T19:30:09.719Z,66.30
2017-11-10T19:32:37.140Z,65.80
2017-11-10T19:35:04.667Z,63.40
2017-11-10T19:37:32.906Z,61.30
2017-11-10T19:40:01.204Z,60.30
2017-11-10T19:42:28.679Z,60.20
2017-11-10T19:44:56.897Z,62.70
2017-11-10T19:47:24.431Z,62.60
2017-11-10T19:49:51.936Z,62.50
2017-11-10T19:52:19.450Z,63.00
2017-11-10T19:54:46.894Z,63.90
2017-11-10T19:57:14.363Z,65.40
2017-11-10T19:59:41.852Z,65.20
2017-11-10T20:02:09.348Z,66.80
2017-11-10T20:04:36.841Z,65.20
2017-11-10T20:07:04.373Z,68.90
2017-11-10T20:09:31.826Z,65.10
2017-11-10T20:12:00.064Z,65.90
2017-11-10T20:14:28.342Z,65.40
2017-11-10T20:16:56.631Z,66.00
2017-11-10T20:19:24.886Z,65.70
2017-11-10T20:21:52.315Z,65.80
2017-11-10T20:24:19.800Z,65.50
2017-11-10T20:26:47.343Z,65.70
2017-11-10T20:29:14.784Z,66.30
2017-11-10T20:31:42.265Z,65.90
2017-11-10T20:34:09.746Z,65.30
2017-11-10T20:36:37.486Z,65.40
2017-11-10T20:39:05.040Z,65.70
2017-11-10T20:41:32.488Z,65.40
2017-11-10T20:44:00.741Z,64.60
2017-11-10T20:46:28.249Z,64.60
2017-11-10T20:48:55.722Z,64.50
2017-11-10T20:51:23.224Z,64.50
2017-11-10T20:53:50.740Z,64.90
2017-11-10T20:56:18.936Z,64.90
2017-11-10T20:58:46.381Z,64.90
2017-11-10T21:01:14.155Z,65.60
2017-11-10T21:03:41.651Z,65.70
2017-11-10T21:06:09.194Z,66.10
2017-11-10T21:08:37.386Z,66.00
2017-11-10T21:11:04.917Z,65.90
2017-11-10T21:13:32.422Z,66.40
2017-11-10T21:16:01.401Z,66.30
2017-11-10T21:18:28.915Z,66.20
2017-11-10T21:20:57.209Z,66.10
2017-11-10T21:23:24.735Z,66.00
2017-11-10T21:25:52.196Z,65.50
2017-11-10T21:28:19.706Z,66.00
2017-11-10T21:30:47.176Z,66.00
2017-11-10T21:33:14.723Z,65.70
2017-11-10T21:35:42.252Z,65.80
2017-11-10T21:38:09.735Z,65.60
2017-11-10T21:40:38.025Z,65.60
2017-11-10T21:43:05.533Z,65.60
2017-11-10T21:45:33.078Z,65.10
2017-11-10T21:48:00.554Z,65.40
2017-11-10T21:50:28.067Z,65.60
2017-11-10T21:52:55.526Z,65.40
2017-11-10T21:55:22.979Z,65.10
2017-11-10T21:57:50.474Z,65.20
2017-11-10T22:00:17.973Z,65.80
2017-11-10T22:02:45.422Z,66.30
2017-11-10T22:05:12.923Z,66.30
2017-11-10T22:07:40.413Z,67.00
2017-11-10T22:10:08.668Z,67.60
2017-11-10T22:12:36.155Z,67.40
2017-11-10T22:15:04.407Z,68.10
2017-11-10T22:17:31.862Z,67.90
2017-11-10T22:19:59.375Z,67.90
2017-11-10T22:22:27.582Z,68.00
2017-11-10T22:24:55.108Z,67.80
2017-11-10T22:27:23.345Z,68.30
2017-11-10T22:29:50.863Z,68.30
2017-11-10T22:32:18.328Z,68.70
2017-11-10T22:34:45.774Z,68.90
2017-11-10T22:37:13.229Z,68.80
2017-11-10T22:39:40.741Z,69.60
2017-11-10T22:42:08.188Z,68.10
2017-11-10T22:44:35.730Z,68.80
2017-11-10T22:47:03.181Z,68.30
2017-11-10T22:49:31.407Z,68.40
2017-11-10T22:51:58.922Z,68.20
2017-11-10T22:54:26.394Z,68.40
2017-11-10T22:56:54.677Z,67.20
2017-11-10T22:59:22.137Z,67.20
2017-11-10T23:01:50.385Z,68.90
2017-11-10T23:04:17.820Z,68.90
2017-11-10T23:06:45.294Z,68.30
2017-11-10T23:09:12.735Z,68.10
2017-11-10T23:11:41.018Z,68.30
2017-11-10T23:14:08.533Z,68.30
2017-11-10T23:16:36.766Z,68.30
2017-11-10T23:19:04.324Z,68.30
2017-11-10T23:21:31.788Z,68.30
2017-11-10T23:23:59.289Z,68.10
2017-11-10T23:26:26.777Z,67.70
2017-11-10T23:28:54.226Z,67.90
2017-11-10T23:31:21.704Z,67.60
2017-11-10T23:33:49.984Z,67.20
2017-11-10T23:36:18.206Z,66.90
2017-11-10T23:38:45.660Z,66.90
2017-11-10T23:41:13.157Z,66.70
2017-11-10T23:43:40.630Z,66.50
2017-11-10T23:46:08.059Z,66.30
2017-11-10T23:48:35.588Z,66.00
2017-11-10T23:51:03.089Z,65.80
2017-11-10T23:53:30.525Z,65.70
2017-11-10T23:55:58.037Z,65.30
2017-11-10T23:58:25.557Z,64.60
